sensor_id;sensor_type;location;lat;lon;timestamp;P1;durP1;ratioP1;P2;durP2;ratioP2
5878;SDS011;2965;42.640;23.370;2022-11-15T05:02:01;87.50;;;34.37;;
5878;SDS011;2965;42.640;23.370;2022-11-15T05:04:27;168.60;;;34.10;;
5878;SDS011;2965;42.640;23.370;2022-11-15T05:06:52;118.27;;;33.20;;
5878;SDS011;2965;42.640;23.370;2022-11-15T05:09:18;132.97;;;32.80;;
5878;SDS011;2965;42.640;23.370;2022-11-15T05:11:44;82.43;;;30.47;;
5878;SDS011;2965;42.640;23.370;2022-11-15T05:14:10;109.87;;;36.53;;
5878;SDS011;2965;42.640;23.370;2022-11-15T05:16:36;77.57;;;32.63;;
5878;SDS011;2965;42.640;23.370;2022-11-15T05:19:02;114.33;;;31.10;;
5878;SDS011;2965;42.640;23.370;2022-11-15T05:21:27;107.17;;;30.10;;
5878;SDS011;2965;42.640;23.370;2022-11-15T05:23:53;107.57;;;29.90;;
5878;SDS011;2965;42.640;23.370;2022-11-15T05:26:18;62.40;;;29.90;;
5878;SDS011;2965;42.640;23.370;2022-11-15T05:28:44;68.30;;;30.10;;
5878;SDS011;2965;42.640;23.370;2022-11-15T05:31:13;77.87;;;31.23;;
5878;SDS011;2965;42.640;23.370;2022-11-15T05:33:40;109.57;;;31.67;;
5878;SDS011;2965;42.640;23.370;2022-11-15T05:36:09;61.93;;;29.70;;
5878;SDS011;2965;42.640;23.370;2022-11-15T05:38:42;65.40;;;31.50;;
5878;SDS011;2965;42.640;23.370;2022-11-15T05:41:08;71.63;;;30.43;;
5878;SDS011;2965;42.640;23.370;2022-11-15T05:43:35;70.83;;;31.07;;
5878;SDS011;2965;42.640;23.370;2022-11-15T05:46:03;65.53;;;30.17;;
5878;SDS011;2965;42.640;23.370;2022-11-15T05:48:29;57.90;;;27.57;;
5878;SDS011;2965;42.640;23.370;2022-11-15T05:50:55;65.10;;;29.93;;
5878;SDS011;2965;42.640;23.370;2022-11-15T05:53:22;57.80;;;28.67;;
5878;SDS011;2965;42.640;23.370;2022-11-15T05:55:49;61.30;;;28.47;;
5878;SDS011;2965;42.640;23.370;2022-11-15T05:58:14;54.87;;;25.30;;
5878;SDS011;2965;42.640;23.370;2022-11-15T06:00:40;67.97;;;27.77;;
5878;SDS011;2965;42.640;23.370;2022-11-15T06:03:08;59.80;;;26.17;;
5878;SDS011;2965;42.640;23.370;2022-11-15T06:05:33;69.73;;;27.60;;
5878;SDS011;2965;42.640;23.370;2022-11-15T06:07:58;58.37;;;26.70;;
5878;SDS011;2965;42.640;23.370;2022-11-15T06:10:24;50.00;;;26.57;;
5878;SDS011;2965;42.640;23.370;2022-11-15T06:12:59;57.23;;;27.27;;
5878;SDS011;2965;42.640;23.370;2022-11-15T06:15:26;58.37;;;25.73;;
5878;SDS011;2965;42.640;23.370;2022-11-15T06:17:51;61.40;;;28.03;;
5878;SDS011;2965;42.640;23.370;2022-11-15T06:20:17;72.23;;;28.83;;
5878;SDS011;2965;42.640;23.370;2022-11-15T06:22:43;69.23;;;27.60;;
5878;SDS011;2965;42.640;23.370;2022-11-15T06:25:08;103.67;;;31.47;;
5878;SDS011;2965;42.640;23.370;2022-11-15T06:27:33;72.23;;;29.03;;
5878;SDS011;2965;42.640;23.370;2022-11-15T06:29:59;77.13;;;27.90;;
5878;SDS011;2965;42.640;23.370;2022-11-15T06:32:24;96.13;;;31.63;;
5878;SDS011;2965;42.640;23.370;2022-11-15T06:34:50;128.47;;;32.13;;
5878;SDS011;2965;42.640;23.370;2022-11-15T06:37:15;145.57;;;32.53;;
5878;SDS011;2965;42.640;23.370;2022-11-15T06:39:40;146.47;;;32.67;;
5878;SDS011;2965;42.640;23.370;2022-11-15T06:42:07;131.40;;;32.67;;
5878;SDS011;2965;42.640;23.370;2022-11-15T06:44:33;144.00;;;34.93;;
5878;SDS011;2965;42.640;23.370;2022-11-15T06:46:59;113.93;;;35.40;;
5878;SDS011;2965;42.640;23.370;2022-11-15T06:49:24;99.10;;;34.23;;
5878;SDS011;2965;42.640;23.370;2022-11-15T06:51:49;130.60;;;42.30;;
5878;SDS011;2965;42.640;23.370;2022-11-15T06:54:15;196.93;;;44.03;;
5878;SDS011;2965;42.640;23.370;2022-11-15T06:56:40;166.30;;;55.83;;
5878;SDS011;2965;42.640;23.370;2022-11-15T06:59:05;172.77;;;60.70;;
5878;SDS011;2965;42.640;23.370;2022-11-15T08:18:15;127.60;;;44.27;;
5878;SDS011;2965;42.640;23.370;2022-11-15T08:20:41;135.40;;;47.23;;
5878;SDS011;2965;42.640;23.370;2022-11-15T08:23:07;163.83;;;47.37;;
5878;SDS011;2965;42.640;23.370;2022-11-15T08:25:35;137.43;;;45.20;;
5878;SDS011;2965;42.640;23.370;2022-11-15T08:28:03;139.83;;;45.77;;
5878;SDS011;2965;42.640;23.370;2022-11-15T08:30:33;133.80;;;46.97;;
5878;SDS011;2965;42.640;23.370;2022-11-15T08:33:01;153.20;;;48.67;;
5878;SDS011;2965;42.640;23.370;2022-11-15T08:35:26;136.27;;;47.50;;
5878;SDS011;2965;42.640;23.370;2022-11-15T08:37:52;134.30;;;48.33;;
5878;SDS011;2965;42.640;23.370;2022-11-15T08:40:18;142.07;;;48.43;;
5878;SDS011;2965;42.640;23.370;2022-11-15T08:42:46;145.63;;;50.97;;
5878;SDS011;2965;42.640;23.370;2022-11-15T08:45:12;122.97;;;45.73;;
5878;SDS011;2965;42.640;23.370;2022-11-15T08:47:37;137.07;;;47.33;;
5878;SDS011;2965;42.640;23.370;2022-11-15T08:50:03;161.70;;;51.97;;
5878;SDS011;2965;42.640;23.370;2022-11-15T08:52:28;134.23;;;46.90;;
5878;SDS011;2965;42.640;23.370;2022-11-15T08:54:54;150.40;;;53.57;;
5878;SDS011;2965;42.640;23.370;2022-11-15T08:57:19;150.73;;;51.10;;
5878;SDS011;2965;42.640;23.370;2022-11-15T08:59:44;156.33;;;53.13;;
5878;SDS011;2965;42.640;23.370;2022-11-15T09:02:11;150.77;;;49.77;;
5878;SDS011;2965;42.640;23.370;2022-11-15T09:04:39;137.20;;;48.37;;
5878;SDS011;2965;42.640;23.370;2022-11-15T09:07:06;137.20;;;48.57;;
5878;SDS011;2965;42.640;23.370;2022-11-15T09:09:31;137.13;;;49.87;;
5878;SDS011;2965;42.640;23.370;2022-11-15T09:11:57;133.03;;;50.20;;
5878;SDS011;2965;42.640;23.370;2022-11-15T09:14:22;151.27;;;49.33;;
5878;SDS011;2965;42.640;23.370;2022-11-15T09:16:47;149.10;;;49.90;;
5878;SDS011;2965;42.640;23.370;2022-11-15T09:19:13;169.47;;;48.80;;
5878;SDS011;2965;42.640;23.370;2022-11-15T09:21:39;139.73;;;49.43;;
5878;SDS011;2965;42.640;23.370;2022-11-15T09:24:05;119.07;;;47.87;;
5878;SDS011;2965;42.640;23.370;2022-11-15T09:26:31;157.10;;;51.43;;
5878;SDS011;2965;42.640;23.370;2022-11-15T09:28:56;152.60;;;50.47;;
5878;SDS011;2965;42.640;23.370;2022-11-15T09:31:21;145.37;;;51.20;;
5878;SDS011;2965;42.640;23.370;2022-11-15T09:33:47;155.30;;;53.87;;
5878;SDS011;2965;42.640;23.370;2022-11-15T09:36:12;150.00;;;50.77;;
5878;SDS011;2965;42.640;23.370;2022-11-15T09:38:38;171.30;;;55.57;;
5878;SDS011;2965;42.640;23.370;2022-11-15T09:49:31;143.73;;;50.17;;
5878;SDS011;2965;42.640;23.370;2022-11-15T09:51:57;134.20;;;49.93;;
5878;SDS011;2965;42.640;23.370;2022-11-15T10:05:03;135.97;;;50.90;;
5878;SDS011;2965;42.640;23.370;2022-11-15T10:15:49;133.83;;;49.70;;
5878;SDS011;2965;42.640;23.370;2022-11-15T10:23:14;128.30;;;48.23;;
5878;SDS011;2965;42.640;23.370;2022-11-15T10:25:42;114.37;;;48.90;;
5878;SDS011;2965;42.640;23.370;2022-11-15T10:39:10;119.73;;;49.67;;
5878;SDS011;2965;42.640;23.370;2022-11-15T10:46:25;106.37;;;47.53;;
5878;SDS011;2965;42.640;23.370;2022-11-15T10:48:51;112.47;;;46.87;;
5878;SDS011;2965;42.640;23.370;2022-11-15T10:51:23;117.27;;;48.27;;
5878;SDS011;2965;42.640;23.370;2022-11-15T10:53:56;101.97;;;46.17;;
5878;SDS011;2965;42.640;23.370;2022-11-15T10:56:24;102.30;;;45.83;;
5878;SDS011;2965;42.640;23.370;2022-11-15T10:58:51;92.80;;;42.43;;
5878;SDS011;2965;42.640;23.370;2022-11-15T11:01:21;103.43;;;43.47;;
5878;SDS011;2965;42.640;23.370;2022-11-15T11:09:28;92.73;;;40.70;;
5878;SDS011;2965;42.640;23.370;2022-11-15T11:11:58;91.23;;;41.17;;
5878;SDS011;2965;42.640;23.370;2022-11-15T11:14:26;98.60;;;42.37;;
5878;SDS011;2965;42.640;23.370;2022-11-15T11:28:11;102.97;;;40.70;;
5878;SDS011;2965;42.640;23.370;2022-11-15T11:42:37;95.57;;;43.33;;
5878;SDS011;2965;42.640;23.370;2022-11-15T11:48:03;82.53;;;39.90;;
5878;SDS011;2965;42.640;23.370;2022-11-15T11:50:39;103.47;;;44.03;;
5878;SDS011;2965;42.640;23.370;2022-11-15T11:56:16;84.30;;;40.90;;
5878;SDS011;2965;42.640;23.370;2022-11-15T11:58:44;90.00;;;40.53;;
5878;SDS011;2965;42.640;23.370;2022-11-15T12:06:54;90.33;;;43.83;;
5878;SDS011;2965;42.640;23.370;2022-11-15T12:09:32;94.50;;;42.33;;
5878;SDS011;2965;42.640;23.370;2022-11-15T12:15:16;85.20;;;42.17;;
5878;SDS011;2965;42.640;23.370;2022-11-15T12:17:45;98.50;;;40.03;;
5878;SDS011;2965;42.640;23.370;2022-11-15T12:20:16;100.47;;;42.80;;
5878;SDS011;2965;42.640;23.370;2022-11-15T12:22:46;91.13;;;41.80;;
5878;SDS011;2965;42.640;23.370;2022-11-15T12:31:22;86.90;;;41.63;;
5878;SDS011;2965;42.640;23.370;2022-11-15T12:33:56;82.57;;;39.00;;
5878;SDS011;2965;42.640;23.370;2022-11-15T12:38:56;91.73;;;39.00;;
5878;SDS011;2965;42.640;23.370;2022-11-15T12:44:10;84.97;;;38.80;;
5878;SDS011;2965;42.640;23.370;2022-11-15T13:02:44;80.97;;;39.07;;
5878;SDS011;2965;42.640;23.370;2022-11-15T13:17:43;84.00;;;40.17;;
5878;SDS011;2965;42.640;23.370;2022-11-15T13:30:40;89.90;;;40.13;;
5878;SDS011;2965;42.640;23.370;2022-11-15T13:33:17;86.63;;;40.33;;
5878;SDS011;2965;42.640;23.370;2022-11-15T13:35:45;94.13;;;38.63;;
5878;SDS011;2965;42.640;23.370;2022-11-15T13:38:34;91.43;;;39.40;;
5878;SDS011;2965;42.640;23.370;2022-11-15T13:43:42;81.60;;;39.73;;
5878;SDS011;2965;42.640;23.370;2022-11-15T13:46:16;89.87;;;43.57;;
5878;SDS011;2965;42.640;23.370;2022-11-15T13:48:46;85.33;;;42.37;;
5878;SDS011;2965;42.640;23.370;2022-11-15T13:51:21;88.07;;;42.20;;
5878;SDS011;2965;42.640;23.370;2022-11-15T13:53:55;85.33;;;41.23;;
5878;SDS011;2965;42.640;23.370;2022-11-15T13:56:23;89.33;;;41.00;;
5878;SDS011;2965;42.640;23.370;2022-11-15T13:58:51;89.27;;;44.40;;
5878;SDS011;2965;42.640;23.370;2022-11-15T14:01:19;94.33;;;44.20;;
5878;SDS011;2965;42.640;23.370;2022-11-15T14:03:47;93.60;;;44.70;;
5878;SDS011;2965;42.640;23.370;2022-11-15T14:06:20;96.07;;;43.17;;
5878;SDS011;2965;42.640;23.370;2022-11-15T14:11:55;92.83;;;42.33;;
5878;SDS011;2965;42.640;23.370;2022-11-15T14:14:22;95.43;;;40.73;;
5878;SDS011;2965;42.640;23.370;2022-11-15T14:16:52;92.70;;;40.10;;
5878;SDS011;2965;42.640;23.370;2022-11-15T14:22:10;80.23;;;38.17;;
5878;SDS011;2965;42.640;23.370;2022-11-15T14:24:39;93.73;;;41.30;;
5878;SDS011;2965;42.640;23.370;2022-11-15T14:27:26;89.97;;;40.10;;
5878;SDS011;2965;42.640;23.370;2022-11-15T14:29:54;77.07;;;37.80;;
5878;SDS011;2965;42.640;23.370;2022-11-15T14:32:21;77.43;;;38.27;;
5878;SDS011;2965;42.640;23.370;2022-11-15T14:34:49;76.20;;;38.13;;
5878;SDS011;2965;42.640;23.370;2022-11-15T14:37:24;83.37;;;38.73;;
5878;SDS011;2965;42.640;23.370;2022-11-15T14:39:51;97.10;;;38.90;;
5878;SDS011;2965;42.640;23.370;2022-11-15T14:42:18;88.67;;;38.13;;
5878;SDS011;2965;42.640;23.370;2022-11-15T14:44:44;88.10;;;39.50;;
5878;SDS011;2965;42.640;23.370;2022-11-15T14:47:10;86.33;;;40.13;;
5878;SDS011;2965;42.640;23.370;2022-11-15T14:49:36;82.77;;;38.37;;
5878;SDS011;2965;42.640;23.370;2022-11-15T14:52:01;84.30;;;38.33;;
5878;SDS011;2965;42.640;23.370;2022-11-15T14:54:29;75.43;;;36.60;;
5878;SDS011;2965;42.640;23.370;2022-11-15T14:56:54;89.63;;;38.03;;
5878;SDS011;2965;42.640;23.370;2022-11-15T14:59:19;85.93;;;38.70;;
5878;SDS011;2965;42.640;23.370;2022-11-15T15:01:45;85.47;;;40.60;;
5878;SDS011;2965;42.640;23.370;2022-11-15T15:04:10;82.70;;;38.60;;
5878;SDS011;2965;42.640;23.370;2022-11-15T15:06:36;89.03;;;40.77;;
5878;SDS011;2965;42.640;23.370;2022-11-15T15:09:02;80.50;;;39.07;;
5878;SDS011;2965;42.640;23.370;2022-11-15T15:11:29;77.90;;;38.90;;
5878;SDS011;2965;42.640;23.370;2022-11-15T15:13:55;88.70;;;38.93;;
5878;SDS011;2965;42.640;23.370;2022-11-15T15:16:22;95.70;;;43.33;;
5878;SDS011;2965;42.640;23.370;2022-11-15T15:18:48;138.93;;;51.53;;
5878;SDS011;2965;42.640;23.370;2022-11-15T15:21:17;110.20;;;47.30;;
5878;SDS011;2965;42.640;23.370;2022-11-15T15:23:46;101.43;;;45.47;;
5878;SDS011;2965;42.640;23.370;2022-11-15T15:26:11;122.77;;;49.70;;
5878;SDS011;2965;42.640;23.370;2022-11-15T15:28:37;99.90;;;47.27;;
5878;SDS011;2965;42.640;23.370;2022-11-15T15:31:03;116.97;;;49.57;;
5878;SDS011;2965;42.640;23.370;2022-11-15T15:33:29;115.77;;;49.33;;
5878;SDS011;2965;42.640;23.370;2022-11-15T15:35:54;121.47;;;49.40;;
5878;SDS011;2965;42.640;23.370;2022-11-15T15:38:19;117.97;;;52.90;;
5878;SDS011;2965;42.640;23.370;2022-11-15T15:40:46;120.77;;;52.23;;
5878;SDS011;2965;42.640;23.370;2022-11-15T15:43:11;122.03;;;53.77;;
5878;SDS011;2965;42.640;23.370;2022-11-15T15:45:37;126.63;;;51.57;;
5878;SDS011;2965;42.640;23.370;2022-11-15T15:48:04;127.53;;;51.30;;
5878;SDS011;2965;42.640;23.370;2022-11-15T15:50:33;122.63;;;51.47;;
5878;SDS011;2965;42.640;23.370;2022-11-15T15:53:00;121.00;;;53.57;;
5878;SDS011;2965;42.640;23.370;2022-11-15T15:55:28;118.33;;;50.40;;
5878;SDS011;2965;42.640;23.370;2022-11-15T15:57:53;115.07;;;49.70;;
5878;SDS011;2965;42.640;23.370;2022-11-15T16:00:19;120.10;;;52.00;;
5878;SDS011;2965;42.640;23.370;2022-11-15T16:02:46;114.60;;;50.53;;
5878;SDS011;2965;42.640;23.370;2022-11-15T16:05:12;126.20;;;51.97;;
5878;SDS011;2965;42.640;23.370;2022-11-15T16:07:37;126.90;;;52.63;;
5878;SDS011;2965;42.640;23.370;2022-11-15T16:10:26;133.93;;;56.30;;
5878;SDS011;2965;42.640;23.370;2022-11-15T16:12:51;131.23;;;52.60;;
5878;SDS011;2965;42.640;23.370;2022-11-15T16:15:18;134.50;;;54.87;;
5878;SDS011;2965;42.640;23.370;2022-11-15T16:17:47;118.07;;;53.87;;
5878;SDS011;2965;42.640;23.370;2022-11-15T16:20:22;130.53;;;51.73;;
5878;SDS011;2965;42.640;23.370;2022-11-15T16:22:56;128.33;;;46.10;;
5878;SDS011;2965;42.640;23.370;2022-11-15T16:25:22;99.53;;;44.43;;
5878;SDS011;2965;42.640;23.370;2022-11-15T16:27:48;96.30;;;40.37;;
5878;SDS011;2965;42.640;23.370;2022-11-15T16:30:17;77.53;;;36.83;;
5878;SDS011;2965;42.640;23.370;2022-11-15T16:32:44;85.90;;;39.33;;
5878;SDS011;2965;42.640;23.370;2022-11-15T16:35:13;103.90;;;40.27;;
5878;SDS011;2965;42.640;23.370;2022-11-15T16:37:40;92.13;;;40.57;;
5878;SDS011;2965;42.640;23.370;2022-11-15T16:42:52;118.60;;;48.23;;
5878;SDS011;2965;42.640;23.370;2022-11-15T16:45:18;147.40;;;47.90;;
5878;SDS011;2965;42.640;23.370;2022-11-15T16:47:43;140.20;;;57.30;;
5878;SDS011;2965;42.640;23.370;2022-11-15T16:50:28;151.80;;;56.93;;
5878;SDS011;2965;42.640;23.370;2022-11-15T16:52:56;160.63;;;59.33;;
5878;SDS011;2965;42.640;23.370;2022-11-15T16:55:22;136.17;;;57.07;;
5878;SDS011;2965;42.640;23.370;2022-11-15T16:57:50;125.73;;;53.40;;
5878;SDS011;2965;42.640;23.370;2022-11-15T17:00:16;126.03;;;54.00;;
5878;SDS011;2965;42.640;23.370;2022-11-15T17:02:43;110.67;;;51.27;;
5878;SDS011;2965;42.640;23.370;2022-11-15T17:05:10;126.90;;;53.60;;
5878;SDS011;2965;42.640;23.370;2022-11-15T17:07:35;117.80;;;50.97;;
5878;SDS011;2965;42.640;23.370;2022-11-15T17:10:01;121.60;;;50.40;;
5878;SDS011;2965;42.640;23.370;2022-11-15T17:12:26;121.60;;;51.80;;
5878;SDS011;2965;42.640;23.370;2022-11-15T17:14:52;126.07;;;52.13;;
5878;SDS011;2965;42.640;23.370;2022-11-15T17:17:18;147.77;;;51.77;;
5878;SDS011;2965;42.640;23.370;2022-11-15T17:19:43;139.93;;;52.60;;
5878;SDS011;2965;42.640;23.370;2022-11-15T17:22:08;129.50;;;50.80;;
5878;SDS011;2965;42.640;23.370;2022-11-15T17:24:34;114.60;;;49.80;;
5878;SDS011;2965;42.640;23.370;2022-11-15T17:26:59;133.27;;;48.23;;
5878;SDS011;2965;42.640;23.370;2022-11-15T17:29:24;107.93;;;46.80;;
5878;SDS011;2965;42.640;23.370;2022-11-15T17:31:50;132.80;;;48.23;;
5878;SDS011;2965;42.640;23.370;2022-11-15T17:34:15;106.77;;;48.70;;
5878;SDS011;2965;42.640;23.370;2022-11-15T17:36:40;114.07;;;47.60;;
5878;SDS011;2965;42.640;23.370;2022-11-15T17:39:06;118.10;;;46.40;;
5878;SDS011;2965;42.640;23.370;2022-11-15T17:41:31;111.40;;;45.97;;
5878;SDS011;2965;42.640;23.370;2022-11-15T17:43:57;100.50;;;45.50;;
5878;SDS011;2965;42.640;23.370;2022-11-15T17:46:23;118.70;;;47.50;;
5878;SDS011;2965;42.640;23.370;2022-11-15T17:48:49;116.57;;;46.37;;
5878;SDS011;2965;42.640;23.370;2022-11-15T17:51:15;99.43;;;48.47;;
5878;SDS011;2965;42.640;23.370;2022-11-15T17:53:45;119.20;;;48.90;;
5878;SDS011;2965;42.640;23.370;2022-11-15T17:56:14;124.77;;;51.60;;
5878;SDS011;2965;42.640;23.370;2022-11-15T17:58:41;128.50;;;47.27;;
5878;SDS011;2965;42.640;23.370;2022-11-15T18:03:49;109.60;;;46.70;;
5878;SDS011;2965;42.640;23.370;2022-11-15T18:06:15;95.63;;;44.77;;
5878;SDS011;2965;42.640;23.370;2022-11-15T18:08:42;124.63;;;48.90;;
5878;SDS011;2965;42.640;23.370;2022-11-15T18:11:10;112.17;;;48.57;;
5878;SDS011;2965;42.640;23.370;2022-11-15T18:13:36;118.23;;;46.97;;
5878;SDS011;2965;42.640;23.370;2022-11-15T18:16:04;127.33;;;52.47;;
5878;SDS011;2965;42.640;23.370;2022-11-15T18:18:31;118.20;;;49.43;;
5878;SDS011;2965;42.640;23.370;2022-11-15T18:20:58;108.97;;;47.90;;
5878;SDS011;2965;42.640;23.370;2022-11-15T18:23:24;119.43;;;49.23;;
5878;SDS011;2965;42.640;23.370;2022-11-15T18:25:50;110.27;;;48.73;;
5878;SDS011;2965;42.640;23.370;2022-11-15T18:28:16;106.60;;;47.73;;
5878;SDS011;2965;42.640;23.370;2022-11-15T18:30:41;143.67;;;55.20;;
5878;SDS011;2965;42.640;23.370;2022-11-15T18:33:06;134.10;;;51.37;;
5878;SDS011;2965;42.640;23.370;2022-11-15T18:35:32;117.90;;;48.57;;
5878;SDS011;2965;42.640;23.370;2022-11-15T18:37:57;123.13;;;54.23;;
5878;SDS011;2965;42.640;23.370;2022-11-15T18:40:22;122.70;;;53.43;;
5878;SDS011;2965;42.640;23.370;2022-11-15T18:42:48;121.07;;;54.70;;
5878;SDS011;2965;42.640;23.370;2022-11-15T18:45:13;214.77;;;107.23;;
5878;SDS011;2965;42.640;23.370;2022-11-15T18:47:38;246.17;;;118.80;;
5878;SDS011;2965;42.640;23.370;2022-11-15T18:50:04;187.73;;;92.93;;
5878;SDS011;2965;42.640;23.370;2022-11-15T18:52:30;137.63;;;63.03;;
5878;SDS011;2965;42.640;23.370;2022-11-15T18:54:55;123.10;;;53.30;;
5878;SDS011;2965;42.640;23.370;2022-11-15T18:57:21;273.90;;;143.20;;
5878;SDS011;2965;42.640;23.370;2022-11-15T18:59:46;187.80;;;86.17;;
5878;SDS011;2965;42.640;23.370;2022-11-15T19:02:11;165.07;;;75.43;;
5878;SDS011;2965;42.640;23.370;2022-11-15T19:04:37;153.10;;;62.43;;
5878;SDS011;2965;42.640;23.370;2022-11-15T19:07:02;133.33;;;55.60;;
5878;SDS011;2965;42.640;23.370;2022-11-15T19:09:27;139.97;;;56.87;;
5878;SDS011;2965;42.640;23.370;2022-11-15T19:11:56;137.57;;;53.00;;
5878;SDS011;2965;42.640;23.370;2022-11-15T19:14:22;117.43;;;52.57;;
5878;SDS011;2965;42.640;23.370;2022-11-15T19:16:50;129.87;;;53.20;;
5878;SDS011;2965;42.640;23.370;2022-11-15T19:19:17;128.63;;;54.37;;
5878;SDS011;2965;42.640;23.370;2022-11-15T19:21:47;142.13;;;53.03;;
5878;SDS011;2965;42.640;23.370;2022-11-15T19:24:13;125.90;;;53.57;;
5878;SDS011;2965;42.640;23.370;2022-11-15T19:26:39;124.93;;;54.40;;
5878;SDS011;2965;42.640;23.370;2022-11-15T19:29:05;142.77;;;56.07;;
5878;SDS011;2965;42.640;23.370;2022-11-15T19:31:34;124.10;;;53.50;;
5878;SDS011;2965;42.640;23.370;2022-11-15T19:34:01;117.17;;;52.07;;
5878;SDS011;2965;42.640;23.370;2022-11-15T19:36:31;121.93;;;49.30;;
5878;SDS011;2965;42.640;23.370;2022-11-15T19:39:00;119.47;;;50.27;;
5878;SDS011;2965;42.640;23.370;2022-11-15T19:41:29;125.47;;;51.27;;
5878;SDS011;2965;42.640;23.370;2022-11-15T19:43:55;106.10;;;48.17;;
5878;SDS011;2965;42.640;23.370;2022-11-15T19:46:21;117.97;;;47.83;;
5878;SDS011;2965;42.640;23.370;2022-11-15T19:48:47;100.50;;;47.47;;
5878;SDS011;2965;42.640;23.370;2022-11-15T19:51:14;115.13;;;50.57;;
5878;SDS011;2965;42.640;23.370;2022-11-15T19:53:43;132.17;;;55.03;;
5878;SDS011;2965;42.640;23.370;2022-11-15T19:56:09;124.60;;;52.63;;
5878;SDS011;2965;42.640;23.370;2022-11-15T19:58:36;129.23;;;53.60;;
5878;SDS011;2965;42.640;23.370;2022-11-15T20:01:06;127.33;;;53.33;;
5878;SDS011;2965;42.640;23.370;2022-11-15T20:03:33;131.13;;;55.73;;
5878;SDS011;2965;42.640;23.370;2022-11-15T20:06:01;128.53;;;53.87;;
5878;SDS011;2965;42.640;23.370;2022-11-15T20:08:31;113.13;;;49.30;;
5878;SDS011;2965;42.640;23.370;2022-11-15T20:10:57;100.37;;;44.20;;
5878;SDS011;2965;42.640;23.370;2022-11-15T20:13:23;104.20;;;46.27;;
5878;SDS011;2965;42.640;23.370;2022-11-15T20:15:49;123.03;;;51.90;;
5878;SDS011;2965;42.640;23.370;2022-11-15T20:18:14;145.33;;;60.30;;
5878;SDS011;2965;42.640;23.370;2022-11-15T20:20:40;167.23;;;61.33;;
5878;SDS011;2965;42.640;23.370;2022-11-15T20:23:06;148.53;;;60.17;;
5878;SDS011;2965;42.640;23.370;2022-11-15T20:25:31;151.27;;;60.97;;
5878;SDS011;2965;42.640;23.370;2022-11-15T20:27:57;145.27;;;61.13;;
5878;SDS011;2965;42.640;23.370;2022-11-15T20:30:22;164.07;;;68.83;;
5878;SDS011;2965;42.640;23.370;2022-11-15T20:32:47;176.13;;;73.33;;
5878;SDS011;2965;42.640;23.370;2022-11-15T20:35:13;170.33;;;74.93;;
5878;SDS011;2965;42.640;23.370;2022-11-15T20:37:38;191.67;;;77.20;;
5878;SDS011;2965;42.640;23.370;2022-11-15T20:40:03;178.87;;;74.13;;
5878;SDS011;2965;42.640;23.370;2022-11-15T20:42:29;183.60;;;69.97;;
5878;SDS011;2965;42.640;23.370;2022-11-15T20:44:54;166.80;;;69.53;;
5878;SDS011;2965;42.640;23.370;2022-11-15T20:47:20;163.30;;;71.10;;
5878;SDS011;2965;42.640;23.370;2022-11-15T20:49:45;185.27;;;74.40;;
5878;SDS011;2965;42.640;23.370;2022-11-15T20:52:10;179.97;;;75.83;;
5878;SDS011;2965;42.640;23.370;2022-11-15T20:54:36;164.17;;;74.43;;
5878;SDS011;2965;42.640;23.370;2022-11-15T20:57:01;187.40;;;78.17;;
5878;SDS011;2965;42.640;23.370;2022-11-15T20:59:27;204.03;;;79.40;;
5878;SDS011;2965;42.640;23.370;2022-11-15T21:01:52;177.67;;;78.00;;
5878;SDS011;2965;42.640;23.370;2022-11-15T21:04:17;182.10;;;80.30;;
5878;SDS011;2965;42.640;23.370;2022-11-15T21:06:43;158.53;;;71.67;;
5878;SDS011;2965;42.640;23.370;2022-11-15T21:09:09;219.33;;;90.13;;
5878;SDS011;2965;42.640;23.370;2022-11-15T21:11:53;192.63;;;80.13;;
5878;SDS011;2965;42.640;23.370;2022-11-15T21:14:38;170.90;;;78.40;;
5878;SDS011;2965;42.640;23.370;2022-11-15T21:17:08;262.27;;;103.60;;
5878;SDS011;2965;42.640;23.370;2022-11-15T21:19:34;275.43;;;111.27;;
5878;SDS011;2965;42.640;23.370;2022-11-15T21:21:59;186.07;;;83.00;;
5878;SDS011;2965;42.640;23.370;2022-11-15T21:24:26;174.90;;;76.87;;
5878;SDS011;2965;42.640;23.370;2022-11-15T21:26:51;195.73;;;87.10;;
5878;SDS011;2965;42.640;23.370;2022-11-15T21:29:17;205.93;;;89.33;;
5878;SDS011;2965;42.640;23.370;2022-11-15T21:31:46;197.33;;;91.70;;
5878;SDS011;2965;42.640;23.370;2022-11-15T21:34:12;182.07;;;84.53;;
5878;SDS011;2965;42.640;23.370;2022-11-15T21:36:38;210.73;;;83.07;;
5878;SDS011;2965;42.640;23.370;2022-11-15T21:39:04;170.63;;;83.97;;
5878;SDS011;2965;42.640;23.370;2022-11-15T21:41:30;194.23;;;77.67;;
5878;SDS011;2965;42.640;23.370;2022-11-15T21:43:56;180.97;;;80.37;;
5878;SDS011;2965;42.640;23.370;2022-11-15T21:46:23;182.07;;;82.53;;
5878;SDS011;2965;42.640;23.370;2022-11-15T21:48:48;192.07;;;80.87;;
5878;SDS011;2965;42.640;23.370;2022-11-15T21:51:13;174.90;;;77.00;;
5878;SDS011;2965;42.640;23.370;2022-11-15T21:53:39;169.97;;;78.67;;
5878;SDS011;2965;42.640;23.370;2022-11-15T21:56:04;178.00;;;75.00;;
5878;SDS011;2965;42.640;23.370;2022-11-15T21:58:30;184.90;;;79.60;;
